CheckWX is a tool to help pilots better visualize weather data.  It is not intended as a substitute for an official pre-flight weather briefing.

23:07:50 UTC

EGPD METAR
Aberdeen Dyce Airport
Aberdeen, United Kingdom
Current

18 mins ago

EGPD 012250Z AUTO 24006KT 160V280 9999 NCD 05/M01 Q1011 NOSIG
Observed
Apr-1 @ 22:50 UTC
Wind
  • 240° at 6 KTS
Visibility
10,000+ meters
Flight Rules
VFR
Cloud Levels
  • Clear skies
Temperature
C / 41°F
Dewpoint
-1°C / 30°F
Humidity
66%
Altimeter
29.85" Hg
Pressure
1010.92 hPa
Previous

48 mins ago

EGPD 012220Z AUTO 25008KT 9999 NCD 06/M00 Q1011 NOSIG
Observed
Apr-1 @ 22:20 UTC
Wind
  • 250° at 8 KTS
Visibility
10,000+ meters
Flight Rules
VFR
Cloud Levels
  • Clear skies
Temperature
C / 43°F
Dewpoint
C / 32°F
Humidity
66%
Altimeter
29.85" Hg
Pressure
1010.92 hPa
Previous

1 hour ago

EGPD 012150Z AUTO 21004KT 190V250 9999 NCD 05/00 Q1012 NOSIG
Observed
Apr-1 @ 21:50 UTC
Wind
  • 210° at 4 KTS
Visibility
10,000+ meters
Flight Rules
VFR
Cloud Levels
  • Clear skies
Temperature
C / 41°F
Dewpoint
C / 32°F
Humidity
70%
Altimeter
29.88" Hg
Pressure
1011.92 hPa